createdAt,value
2023-12-16T00:01:26.163Z,5.47
2023-12-16T00:03:53.473Z,6.88
2023-12-16T00:06:21.621Z,5.82
2023-12-16T00:08:49.226Z,6.18
2023-12-16T00:11:19.686Z,5.13
2023-12-16T00:13:47.842Z,6.07
2023-12-16T00:16:14.984Z,5.85
2023-12-16T00:18:42.566Z,5.65
2023-12-16T00:21:09.647Z,5.65
2023-12-16T00:23:36.621Z,4.90
2023-12-16T00:26:03.686Z,4.32
2023-12-16T00:28:30.806Z,3.72
2023-12-16T00:30:58.686Z,4.03
2023-12-16T00:33:25.801Z,3.58
2023-12-16T00:35:52.849Z,4.03
2023-12-16T00:38:19.855Z,3.72
2023-12-16T00:40:49.717Z,3.40
2023-12-16T00:43:19.376Z,3.05
2023-12-16T00:45:47.359Z,3.53
2023-12-16T00:48:14.577Z,2.72
2023-12-16T00:50:43.839Z,3.13
2023-12-16T00:53:10.842Z,2.40
2023-12-16T00:55:38.027Z,2.42
2023-12-16T00:58:05.111Z,2.08
2023-12-16T01:00:32.104Z,2.50
2023-12-16T01:03:02.194Z,1.80
2023-12-16T01:05:29.311Z,1.85
2023-12-16T01:07:56.293Z,1.20
2023-12-16T01:10:24.756Z,1.58
2023-12-16T01:12:51.844Z,1.40
2023-12-16T01:15:18.866Z,1.08
2023-12-16T01:17:48.554Z,0.80
2023-12-16T01:20:18.296Z,0.88
2023-12-16T01:22:45.235Z,1.10
2023-12-16T01:25:12.184Z,1.10
2023-12-16T01:27:39.366Z,1.05
2023-12-16T01:30:08.998Z,1.00
2023-12-16T01:32:36.119Z,0.77
2023-12-16T01:35:03.296Z,1.40
2023-12-16T01:37:30.616Z,1.25
2023-12-16T01:39:57.667Z,1.35
2023-12-16T01:42:24.614Z,0.57
2023-12-16T01:44:51.562Z,1.17
2023-12-16T01:47:19.008Z,1.40
2023-12-16T01:49:46.160Z,1.15
2023-12-16T01:52:13.121Z,1.23
2023-12-16T01:54:40.163Z,1.13
2023-12-16T01:57:07.587Z,0.80
2023-12-16T01:59:34.678Z,1.50
2023-12-16T02:02:01.835Z,0.88
2023-12-16T02:04:29.234Z,0.90
2023-12-16T02:06:57.303Z,1.15
2023-12-16T02:09:24.833Z,0.80
2023-12-16T02:11:53.796Z,0.98
2023-12-16T02:14:20.743Z,0.70
2023-12-16T02:16:48.180Z,0.60
2023-12-16T02:19:24.769Z,0.50
2023-12-16T02:21:52.187Z,1.20
2023-12-16T02:24:19.632Z,1.05
2023-12-16T02:26:49.508Z,1.35
2023-12-16T02:29:19.345Z,1.10
2023-12-16T02:31:47.218Z,1.13
2023-12-16T02:34:14.197Z,0.85
2023-12-16T02:36:41.626Z,1.00
2023-12-16T02:39:08.617Z,0.90
2023-12-16T02:41:35.623Z,1.45
2023-12-16T02:44:02.597Z,1.15
2023-12-16T02:46:31.694Z,0.90
2023-12-16T02:48:58.807Z,0.55
2023-12-16T02:51:25.827Z,0.63
2023-12-16T02:53:54.169Z,0.60
2023-12-16T02:56:21.120Z,0.60
2023-12-16T02:58:48.598Z,0.40
2023-12-16T03:01:16.534Z,0.40
2023-12-16T03:03:43.687Z,0.50
2023-12-16T03:06:10.975Z,0.47
2023-12-16T03:08:39.089Z,0.65
2023-12-16T03:11:06.244Z,0.77
2023-12-16T03:13:33.258Z,0.80
2023-12-16T03:16:00.357Z,1.30
2023-12-16T03:18:27.430Z,1.40
2023-12-16T03:20:55.266Z,1.23
2023-12-16T03:23:22.259Z,2.45
2023-12-16T03:25:49.415Z,2.13
2023-12-16T03:28:18.315Z,1.63
2023-12-16T03:30:47.221Z,2.22
2023-12-16T03:33:14.411Z,1.90
2023-12-16T03:35:41.476Z,2.22
2023-12-16T03:38:08.374Z,2.35
2023-12-16T03:40:38.421Z,1.65
2023-12-16T03:43:05.606Z,2.10
2023-12-16T03:45:32.547Z,2.47
2023-12-16T03:47:59.690Z,2.80
2023-12-16T03:50:26.810Z,3.00
2023-12-16T03:52:53.860Z,1.67
2023-12-16T03:55:20.756Z,2.65
2023-12-16T03:57:47.773Z,2.35
2023-12-16T04:00:15.076Z,3.42
2023-12-16T04:02:42.184Z,3.33
2023-12-16T04:05:09.931Z,2.58
2023-12-16T04:07:37.149Z,2.67
2023-12-16T04:10:05.290Z,2.83
2023-12-16T04:12:33.153Z,3.13
2023-12-16T04:15:00.180Z,3.05
2023-12-16T04:17:27.230Z,3.45
2023-12-16T04:19:55.943Z,2.78
2023-12-16T04:22:23.523Z,3.13
2023-12-16T04:24:51.944Z,3.97
2023-12-16T04:27:19.239Z,3.13
2023-12-16T04:29:48.737Z,3.45
2023-12-16T04:32:16.868Z,3.72
2023-12-16T04:34:43.976Z,3.67
2023-12-16T04:37:12.019Z,2.75
2023-12-16T04:39:39.565Z,3.72
2023-12-16T04:42:06.540Z,2.55
2023-12-16T04:44:33.479Z,2.78
2023-12-16T04:47:00.364Z,2.45
2023-12-16T04:49:27.422Z,2.13
2023-12-16T04:51:54.503Z,2.30
2023-12-16T04:54:21.537Z,1.90
2023-12-16T04:56:51.727Z,2.75
2023-12-16T04:59:18.643Z,2.72
2023-12-16T05:01:45.659Z,2.33
2023-12-16T05:04:13.328Z,3.38
2023-12-16T05:06:40.690Z,2.65
2023-12-16T05:09:11.487Z,2.75
2023-12-16T05:11:38.457Z,3.60
2023-12-16T05:14:05.601Z,3.20
2023-12-16T05:16:33.036Z,3.05
2023-12-16T05:19:04.756Z,3.42
2023-12-16T05:21:32.273Z,3.10
2023-12-16T05:23:59.293Z,2.78
2023-12-16T05:26:26.259Z,2.72
2023-12-16T05:28:53.287Z,2.65
2023-12-16T05:31:20.384Z,3.35
2023-12-16T05:33:48.018Z,2.50
2023-12-16T05:36:15.186Z,2.63
2023-12-16T05:38:43.323Z,3.33
2023-12-16T05:41:12.675Z,3.28
2023-12-16T05:43:40.824Z,3.83
2023-12-16T05:46:07.883Z,2.72
2023-12-16T05:48:37.153Z,2.97
2023-12-16T05:51:05.950Z,2.70
2023-12-16T05:53:36.069Z,2.95
2023-12-16T05:56:07.521Z,3.63
2023-12-16T05:58:34.774Z,3.30
2023-12-16T06:01:02.399Z,3.10
2023-12-16T06:03:29.407Z,3.45
2023-12-16T06:05:56.440Z,3.67
2023-12-16T06:08:23.493Z,3.88
2023-12-16T06:10:50.518Z,3.00
2023-12-16T06:13:18.617Z,3.35
2023-12-16T06:15:45.696Z,2.75
2023-12-16T06:18:12.823Z,3.67
2023-12-16T06:20:39.890Z,3.17
2023-12-16T06:23:06.817Z,2.90
2023-12-16T06:25:33.784Z,3.00
2023-12-16T06:28:00.838Z,3.33
2023-12-16T06:30:27.939Z,2.65
2023-12-16T06:32:55.285Z,2.10
2023-12-16T06:35:22.264Z,2.05
2023-12-16T06:37:49.217Z,2.00
2023-12-16T06:40:17.543Z,2.42
2023-12-16T06:42:44.509Z,3.45
2023-12-16T06:45:11.526Z,3.30
2023-12-16T06:47:39.330Z,3.47
2023-12-16T06:50:06.928Z,3.28
2023-12-16T06:52:33.918Z,2.72
2023-12-16T06:55:00.972Z,2.80
2023-12-16T06:57:27.955Z,2.47
2023-12-16T06:59:54.923Z,1.80
2023-12-16T07:02:21.924Z,2.55
2023-12-16T07:04:48.906Z,2.25
2023-12-16T07:07:15.945Z,2.45
2023-12-16T07:09:43.474Z,2.53
2023-12-16T07:12:10.740Z,2.35
2023-12-16T07:14:39.236Z,2.70
2023-12-16T07:17:06.308Z,2.70
2023-12-16T07:19:35.555Z,2.03
2023-12-16T07:22:02.900Z,2.40
2023-12-16T07:24:29.831Z,2.20
2023-12-16T07:26:56.749Z,2.00
2023-12-16T07:29:23.886Z,2.30
2023-12-16T07:31:51.820Z,2.10
2023-12-16T07:34:19.096Z,2.38
2023-12-16T07:36:48.170Z,2.67
2023-12-16T07:39:16.115Z,3.17
2023-12-16T07:41:44.077Z,3.13
2023-12-16T07:44:12.734Z,3.35
2023-12-16T07:46:45.897Z,3.80
2023-12-16T07:49:13.420Z,3.47
2023-12-16T07:51:40.480Z,3.55
2023-12-16T07:54:12.386Z,3.92
2023-12-16T07:56:39.344Z,2.88
2023-12-16T07:59:06.316Z,3.92
2023-12-16T08:01:33.365Z,3.60
2023-12-16T08:04:00.664Z,3.35
2023-12-16T08:06:27.825Z,3.65
2023-12-16T08:08:54.991Z,3.50
2023-12-16T08:11:22.047Z,3.25
2023-12-16T08:13:49.066Z,2.90
2023-12-16T08:16:16.144Z,2.55
2023-12-16T08:18:44.609Z,4.05
2023-12-16T08:21:11.662Z,2.83
2023-12-16T08:23:38.883Z,3.33
2023-12-16T08:26:11.596Z,3.50
2023-12-16T08:28:39.305Z,2.53
2023-12-16T08:31:07.324Z,2.53
2023-12-16T08:33:36.077Z,2.08
2023-12-16T08:36:03.349Z,2.65
2023-12-16T08:38:30.243Z,1.67
2023-12-16T08:41:08.521Z,1.80
2023-12-16T08:43:36.415Z,1.80
2023-12-16T08:46:04.897Z,2.75
2023-12-16T08:48:32.553Z,2.42
2023-12-16T08:50:59.611Z,2.13
2023-12-16T08:53:27.287Z,3.10
2023-12-16T08:55:54.483Z,2.70
2023-12-16T08:58:21.530Z,3.40
2023-12-16T09:00:50.114Z,3.08
2023-12-16T09:03:19.302Z,3.33
2023-12-16T09:05:46.246Z,2.40
2023-12-16T09:08:14.333Z,2.38
2023-12-16T09:10:41.368Z,2.42
2023-12-16T09:13:08.651Z,2.17
2023-12-16T09:15:35.698Z,3.80
2023-12-16T09:18:02.811Z,3.05
2023-12-16T09:20:29.885Z,2.53
2023-12-16T09:22:56.793Z,3.13
2023-12-16T09:25:23.728Z,2.97
2023-12-16T09:27:50.820Z,3.67
2023-12-16T09:30:21.056Z,3.20
2023-12-16T09:32:49.359Z,3.10
2023-12-16T09:35:19.078Z,3.17
2023-12-16T09:37:47.322Z,3.10
2023-12-16T09:40:14.603Z,3.10
2023-12-16T09:42:45.518Z,4.00
2023-12-16T09:45:20.193Z,3.80
2023-12-16T09:47:49.076Z,3.92
2023-12-16T09:50:18.683Z,4.22
2023-12-16T09:52:45.746Z,5.15
2023-12-16T09:55:15.018Z,4.22
2023-12-16T09:57:43.381Z,4.32
2023-12-16T10:00:11.777Z,5.60
2023-12-16T10:02:39.540Z,5.28
2023-12-16T10:05:08.623Z,5.53
2023-12-16T10:07:36.384Z,5.97
2023-12-16T10:10:03.621Z,5.50
2023-12-16T10:12:37.653Z,5.80
2023-12-16T10:15:04.947Z,5.90
2023-12-16T10:17:32.968Z,4.88
2023-12-16T10:19:59.958Z,4.93
2023-12-16T10:22:27.258Z,5.68
2023-12-16T10:24:54.801Z,6.63
2023-12-16T10:27:24.690Z,6.70
2023-12-16T10:30:02.271Z,6.10
2023-12-16T10:32:34.663Z,5.13
2023-12-16T10:35:03.877Z,5.70
2023-12-16T10:37:31.153Z,6.57
2023-12-16T10:39:58.180Z,6.68
2023-12-16T10:42:25.425Z,6.13
2023-12-16T10:44:55.486Z,5.22
2023-12-16T10:47:28.744Z,5.80
2023-12-16T10:49:59.240Z,6.90
2023-12-16T10:52:28.886Z,7.10
2023-12-16T10:55:04.214Z,7.20
2023-12-16T10:57:47.054Z,8.48
2023-12-16T11:00:32.620Z,7.20
2023-12-16T11:03:21.120Z,7.05
2023-12-16T11:05:52.058Z,7.22
2023-12-16T11:08:24.996Z,8.15
2023-12-16T11:10:54.826Z,8.40
2023-12-16T11:13:23.382Z,8.63
2023-12-16T11:16:06.443Z,8.90
2023-12-16T11:18:38.773Z,10.13
2023-12-16T11:23:51.433Z,9.60
2023-12-16T11:26:21.195Z,9.77
2023-12-16T11:29:06.668Z,8.45
2023-12-16T11:31:34.267Z,8.73
2023-12-16T11:34:06.919Z,8.02
2023-12-16T11:36:53.532Z,6.07
2023-12-16T11:39:41.697Z,7.45
2023-12-16T11:42:14.794Z,8.98
2023-12-16T11:44:59.426Z,8.25
2023-12-16T11:47:40.090Z,8.05
2023-12-16T11:50:07.483Z,7.93
2023-12-16T11:52:34.849Z,8.15
2023-12-16T11:55:02.083Z,7.13
2023-12-16T11:57:31.524Z,8.25
2023-12-16T11:59:58.608Z,7.75
2023-12-16T12:02:26.137Z,7.88
2023-12-16T12:04:53.421Z,8.05
2023-12-16T12:07:20.499Z,8.65
2023-12-16T12:09:54.513Z,8.68
2023-12-16T12:12:21.803Z,9.15
2023-12-16T12:14:48.903Z,9.00
2023-12-16T12:17:18.714Z,8.48
2023-12-16T12:19:45.917Z,10.52
2023-12-16T12:22:13.424Z,7.93
2023-12-16T12:24:41.372Z,8.48
2023-12-16T12:27:09.845Z,8.05
2023-12-16T12:29:59.947Z,7.78
2023-12-16T12:32:29.283Z,8.45
2023-12-16T12:35:08.867Z,7.65
2023-12-16T12:37:41.455Z,8.02
2023-12-16T12:40:15.641Z,7.40
2023-12-16T12:42:54.532Z,9.30
2023-12-16T12:45:27.649Z,9.38
2023-12-16T12:47:56.245Z,8.80
2023-12-16T12:50:26.983Z,8.65
2023-12-16T12:53:19.095Z,8.70
2023-12-16T12:55:44.605Z,8.50
2023-12-16T12:58:20.193Z,9.80
2023-12-16T13:03:24.921Z,9.50
2023-12-16T13:05:52.542Z,8.73
2023-12-16T13:08:19.861Z,10.02
2023-12-16T13:10:48.087Z,8.00
2023-12-16T13:13:15.507Z,7.30
2023-12-16T13:15:54.174Z,7.40
2023-12-16T13:18:26.116Z,8.60
2023-12-16T13:20:55.766Z,8.70
2023-12-16T13:23:22.981Z,9.55
2023-12-16T13:25:51.256Z,9.23
2023-12-16T13:28:19.540Z,9.52
2023-12-16T13:30:47.277Z,8.90
2023-12-16T13:33:14.673Z,9.52
2023-12-16T13:35:41.905Z,8.85
2023-12-16T13:38:08.906Z,9.07
2023-12-16T13:40:40.554Z,10.40
2023-12-16T13:43:13.610Z,11.15
2023-12-16T13:45:40.643Z,9.05
2023-12-16T13:48:07.731Z,8.98
2023-12-16T13:50:34.742Z,9.73
2023-12-16T13:53:02.020Z,8.35
2023-12-16T13:55:29.036Z,7.68
2023-12-16T13:57:56.049Z,9.52
2023-12-16T14:00:23.918Z,10.20
2023-12-16T14:02:51.014Z,9.13
2023-12-16T14:05:21.604Z,8.50
2023-12-16T14:07:48.778Z,8.80
2023-12-16T14:10:15.728Z,8.73
2023-12-16T14:12:42.645Z,8.70
2023-12-16T14:15:09.994Z,8.27
2023-12-16T14:17:37.408Z,8.73
2023-12-16T14:20:05.041Z,9.43
2023-12-16T14:22:32.072Z,9.63
2023-12-16T14:25:00.379Z,9.70
2023-12-16T14:27:27.494Z,9.60
2023-12-16T14:29:54.509Z,9.68
2023-12-16T14:32:24.803Z,7.40
2023-12-16T14:34:51.899Z,8.25
2023-12-16T14:37:18.973Z,8.88
2023-12-16T14:39:45.999Z,7.53
2023-12-16T14:42:13.614Z,5.28
2023-12-16T14:44:40.885Z,6.75
2023-12-16T14:47:08.007Z,6.05
2023-12-16T14:49:35.111Z,5.93
2023-12-16T14:52:02.617Z,7.40
2023-12-16T14:54:29.751Z,5.80
2023-12-16T14:56:56.739Z,4.57
2023-12-16T14:59:25.961Z,4.53
2023-12-16T15:01:52.969Z,4.75
2023-12-16T15:04:20.171Z,4.50
2023-12-16T15:06:47.576Z,4.88
2023-12-16T15:09:16.240Z,3.83
2023-12-16T15:11:43.929Z,4.32
2023-12-16T15:14:15.578Z,4.95
2023-12-16T15:16:43.620Z,5.55
2023-12-16T15:19:10.723Z,4.43
2023-12-16T15:21:41.803Z,4.13
2023-12-16T15:24:09.203Z,4.20
2023-12-16T15:26:39.472Z,3.90
2023-12-16T15:29:06.648Z,4.10
2023-12-16T15:31:33.555Z,4.45
2023-12-16T15:34:00.690Z,4.70
2023-12-16T15:36:27.739Z,4.47
2023-12-16T15:38:54.872Z,3.90
2023-12-16T15:41:24.967Z,4.72
2023-12-16T15:43:53.440Z,4.63
2023-12-16T15:46:20.372Z,5.53
2023-12-16T15:48:48.682Z,5.85
2023-12-16T15:51:27.059Z,5.47
2023-12-16T15:53:55.236Z,5.38
2023-12-16T15:56:22.278Z,5.80
2023-12-16T15:58:49.240Z,7.25
2023-12-16T16:01:17.730Z,5.90
2023-12-16T16:03:44.790Z,6.70
2023-12-16T16:06:11.959Z,5.82
2023-12-16T16:08:38.974Z,5.60
2023-12-16T16:11:07.848Z,6.32
2023-12-16T16:13:35.091Z,6.72
2023-12-16T16:16:03.766Z,6.82
2023-12-16T16:18:30.941Z,7.93
2023-12-16T16:20:58.811Z,7.50
2023-12-16T16:23:26.060Z,8.50
2023-12-16T16:25:55.671Z,9.32
2023-12-16T16:28:22.871Z,7.78
2023-12-16T16:30:50.462Z,8.55
2023-12-16T16:33:20.502Z,8.90
2023-12-16T16:35:51.038Z,7.95
2023-12-16T16:38:21.495Z,7.40
2023-12-16T16:40:48.822Z,9.05
2023-12-16T16:43:15.990Z,8.90
2023-12-16T16:45:55.233Z,10.63
2023-12-16T16:48:22.561Z,10.25
2023-12-16T16:51:10.204Z,9.07
2023-12-16T16:53:37.747Z,9.82
2023-12-16T16:56:05.822Z,10.85
2023-12-16T16:58:32.881Z,11.35
2023-12-16T17:01:00.044Z,11.50
2023-12-16T17:03:27.546Z,12.02
2023-12-16T17:05:54.846Z,11.27
2023-12-16T17:08:22.181Z,11.63
2023-12-16T17:10:49.603Z,12.25
2023-12-16T17:13:18.997Z,11.98
2023-12-16T17:15:49.321Z,13.43
2023-12-16T17:18:18.971Z,10.73
2023-12-16T17:20:47.094Z,11.25
2023-12-16T17:23:14.662Z,10.80
2023-12-16T17:25:41.742Z,11.73
2023-12-16T17:28:08.885Z,12.75
2023-12-16T17:30:36.006Z,13.20
2023-12-16T17:33:03.360Z,15.57
2023-12-16T17:35:30.917Z,15.35
2023-12-16T17:37:58.073Z,16.52
2023-12-16T17:40:58.571Z,14.45
2023-12-16T17:43:27.767Z,15.32
2023-12-16T17:45:54.888Z,18.75
2023-12-16T17:48:22.506Z,17.77
2023-12-16T17:50:53.127Z,18.10
2023-12-16T17:53:20.509Z,17.25
2023-12-16T17:55:50.204Z,16.00
2023-12-16T17:58:17.195Z,13.88
2023-12-16T18:00:44.419Z,20.17
2023-12-16T18:03:11.536Z,19.73
2023-12-16T18:05:38.812Z,16.65
2023-12-16T18:08:07.730Z,16.63
2023-12-16T18:10:39.224Z,19.00
2023-12-16T18:13:09.447Z,17.67
2023-12-16T18:15:36.521Z,16.77
2023-12-16T18:18:03.802Z,18.10
2023-12-16T18:20:31.034Z,18.33
2023-12-16T18:22:58.124Z,18.75
2023-12-16T18:25:25.283Z,19.15
2023-12-16T18:27:56.009Z,21.00
2023-12-16T18:30:23.124Z,19.80
2023-12-16T18:32:50.279Z,18.90
2023-12-16T18:35:17.389Z,20.13
2023-12-16T18:37:44.689Z,20.23
2023-12-16T18:40:13.862Z,20.60
2023-12-16T18:42:42.047Z,23.35
2023-12-16T18:45:09.684Z,23.65
2023-12-16T18:47:37.145Z,21.70
2023-12-16T18:50:04.657Z,19.60
2023-12-16T18:52:34.236Z,22.33
2023-12-16T18:55:01.341Z,18.98
2023-12-16T18:57:28.502Z,21.25
2023-12-16T18:59:55.650Z,22.73
2023-12-16T19:02:24.440Z,23.98
2023-12-16T19:04:51.629Z,24.15
2023-12-16T19:07:18.900Z,21.85
2023-12-16T19:09:46.543Z,22.00
2023-12-16T19:12:13.836Z,18.80
2023-12-16T19:14:41.741Z,20.27
2023-12-16T19:17:09.253Z,19.77
2023-12-16T19:19:46.234Z,21.63
2023-12-16T19:22:14.585Z,22.70
2023-12-16T19:24:41.850Z,22.13
2023-12-16T19:27:09.498Z,19.95
2023-12-16T19:29:38.633Z,19.25
2023-12-16T19:32:06.586Z,18.25
2023-12-16T19:34:33.617Z,19.73
2023-12-16T19:37:00.948Z,18.15
2023-12-16T19:39:28.578Z,19.27
2023-12-16T19:41:56.957Z,20.05
2023-12-16T19:44:25.319Z,20.63
2023-12-16T19:46:52.585Z,20.08
2023-12-16T19:49:20.013Z,21.33
2023-12-16T19:51:56.938Z,20.23
2023-12-16T19:54:23.961Z,22.10
2023-12-16T19:56:51.502Z,21.55
2023-12-16T19:59:19.009Z,22.20
2023-12-16T20:01:48.354Z,18.75
2023-12-16T20:04:17.732Z,18.10
2023-12-16T20:06:44.953Z,18.88
2023-12-16T20:09:12.296Z,20.27
2023-12-16T20:11:39.351Z,19.20
2023-12-16T20:14:06.386Z,18.25
2023-12-16T20:16:33.510Z,18.20
2023-12-16T20:19:02.278Z,19.60
2023-12-16T20:21:29.677Z,21.17
2023-12-16T20:23:56.866Z,19.83
2023-12-16T20:26:24.079Z,18.27
2023-12-16T20:28:52.078Z,19.75
2023-12-16T20:31:20.248Z,20.65
2023-12-16T20:33:48.361Z,18.80
2023-12-16T20:36:18.738Z,19.30
2023-12-16T20:39:04.616Z,19.40
2023-12-16T20:41:33.859Z,18.50
2023-12-16T20:44:01.016Z,17.40
2023-12-16T20:46:28.716Z,19.45
2023-12-16T20:48:57.124Z,19.70
2023-12-16T20:51:24.425Z,18.33
2023-12-16T20:53:51.451Z,18.40
2023-12-16T20:56:18.503Z,16.20
2023-12-16T20:58:45.556Z,17.55
2023-12-16T21:01:12.511Z,15.70
2023-12-16T21:03:39.677Z,16.05
2023-12-16T21:06:07.300Z,15.80
2023-12-16T21:08:34.615Z,15.32
2023-12-16T21:11:01.817Z,16.02
2023-12-16T21:13:28.872Z,16.85
2023-12-16T21:15:55.985Z,15.82
2023-12-16T21:18:23.186Z,16.38
2023-12-16T21:20:50.457Z,16.00
2023-12-16T21:23:20.477Z,16.42
2023-12-16T21:25:50.679Z,15.18
2023-12-16T21:28:18.844Z,14.20
2023-12-16T21:30:45.837Z,14.65
2023-12-16T21:33:13.044Z,14.57
2023-12-16T21:35:40.085Z,13.40
2023-12-16T21:38:07.878Z,14.15
2023-12-16T21:40:34.856Z,14.15
2023-12-16T21:43:03.523Z,14.27
2023-12-16T21:45:30.622Z,14.52
2023-12-16T21:47:57.826Z,13.07
2023-12-16T21:50:24.921Z,13.40
2023-12-16T21:52:52.807Z,14.77
2023-12-16T21:55:19.834Z,13.68
2023-12-16T21:57:46.937Z,13.23
2023-12-16T22:00:23.648Z,11.95
2023-12-16T22:07:14.546Z,10.75
2023-12-16T22:09:41.659Z,11.38
2023-12-16T22:12:08.909Z,12.18
2023-12-16T22:14:36.081Z,12.35
2023-12-16T22:17:03.345Z,13.50
2023-12-16T22:19:30.827Z,12.32
2023-12-16T22:22:00.708Z,13.23
2023-12-16T22:24:27.725Z,12.48
2023-12-16T22:26:54.739Z,12.13
2023-12-16T22:29:21.737Z,12.18
2023-12-16T22:31:48.713Z,11.82
2023-12-16T22:34:15.981Z,11.30
2023-12-16T22:36:45.933Z,11.20
2023-12-16T22:39:15.205Z,11.15
2023-12-16T22:41:42.264Z,10.13
2023-12-16T22:44:14.598Z,9.85
2023-12-16T22:46:41.656Z,9.90
2023-12-16T22:49:09.278Z,10.35
2023-12-16T22:51:37.869Z,8.57
2023-12-16T22:54:05.188Z,8.05
2023-12-16T22:56:34.754Z,11.60
2023-12-16T22:59:04.301Z,12.50
2023-12-16T23:01:34.349Z,11.18
2023-12-16T23:04:02.949Z,13.88
2023-12-16T23:06:30.195Z,12.93
2023-12-16T23:09:00.646Z,12.75
2023-12-16T23:11:27.832Z,13.30
2023-12-16T23:13:56.103Z,13.13
2023-12-16T23:16:23.334Z,13.43
2023-12-16T23:18:51.216Z,13.02
2023-12-16T23:21:18.512Z,13.15
2023-12-16T23:23:45.480Z,12.38
2023-12-16T23:26:12.682Z,10.43
2023-12-16T23:28:39.690Z,10.88
2023-12-16T23:31:11.804Z,12.15
2023-12-16T23:33:43.774Z,11.30
2023-12-16T23:36:11.800Z,9.27
2023-12-16T23:38:42.025Z,9.75
2023-12-16T23:41:15.896Z,9.73
2023-12-16T23:43:42.985Z,10.38
2023-12-16T23:46:18.819Z,9.07
2023-12-16T23:48:47.416Z,9.10
2023-12-16T23:51:19.114Z,8.48
2023-12-16T23:53:49.388Z,8.20
2023-12-16T23:56:17.199Z,6.88
2023-12-16T23:58:44.374Z,6.70
